Time;durP1;ratioP1;P1;durP2;ratioP2;P2;SDS_P1;SDS_P2;PMS_P1;PMS_P2;Temp;Humidity;BMP_temperature;BMP_pressure;BME280_temperature;BME280_humidity;BME280_pressure;Samples;Min_cycle;Max_cycle;Signal;HPM_P1;HPM_P2
2023/10/26 00:00:24;;;;;;;17.98;6.43;;;10.10;99.90;;;;;;5046632;28;20082;-75
2023/10/26 00:02:49;;;;;;;17.33;7.32;;;10.10;99.90;;;;;;5045411;28;20072;-75
2023/10/26 00:05:15;;;;;;;17.08;7.20;;;10.10;99.90;;;;;;5040894;28;20113;-74
2023/10/26 00:07:41;;;;;;;13.40;6.63;;;10.10;99.90;;;;;;5038749;28;20087;-74
2023/10/26 00:10:07;;;;;;;21.88;7.47;;;10.10;99.90;;;;;;5034048;28;20052;-74
2023/10/26 00:12:32;;;;;;;17.85;8.02;;;10.10;99.90;;;;;;5039642;28;20083;-76
2023/10/26 00:14:58;;;;;;;13.57;7.10;;;10.10;99.90;;;;;;5030006;28;20446;-74
2023/10/26 00:17:24;;;;;;;18.98;7.43;;;10.10;99.90;;;;;;5027966;28;20061;-76
2023/10/26 00:19:52;;;;;;;15.63;6.97;;;10.10;99.90;;;;;;5040756;28;20037;-74
2023/10/26 00:22:18;;;;;;;16.83;7.15;;;10.10;99.90;;;;;;5027523;28;20030;-74
2023/10/26 00:24:44;;;;;;;14.77;6.85;;;10.10;99.90;;;;;;5025934;28;20075;-75
2023/10/26 00:27:09;;;;;;;15.23;7.45;;;10.10;99.90;;;;;;5034802;28;20048;-74
2023/10/26 00:29:35;;;;;;;12.40;6.53;;;10.10;99.90;;;;;;5037828;28;20079;-75
2023/10/26 00:32:00;;;;;;;17.52;6.20;;;10.10;99.90;;;;;;5044934;28;20044;-74
2023/10/26 00:34:26;;;;;;;14.30;7.18;;;10.10;99.90;;;;;;5033129;28;20029;-74
2023/10/26 00:36:51;;;;;;;15.60;6.47;;;10.10;99.90;;;;;;5025161;28;20402;-75
2023/10/26 00:39:17;;;;;;;16.88;6.78;;;10.10;99.90;;;;;;5045062;28;20075;-74
2023/10/26 00:41:42;;;;;;;21.23;7.72;;;10.00;99.90;;;;;;5046323;28;20139;-75
2023/10/26 00:44:08;;;;;;;12.10;6.05;;;10.00;99.90;;;;;;5046694;28;20033;-74
2023/10/26 00:46:35;;;;;;;17.00;7.03;;;10.00;99.90;;;;;;5045989;28;20037;-74
2023/10/26 00:49:01;;;;;;;12.88;6.30;;;10.00;99.90;;;;;;5044756;28;20033;-74
2023/10/26 00:51:27;;;;;;;18.60;7.20;;;10.00;99.90;;;;;;5045109;28;20037;-74
2023/10/26 00:53:53;;;;;;;15.57;6.78;;;10.00;99.90;;;;;;5039492;28;20044;-74
2023/10/26 00:56:21;;;;;;;13.23;6.53;;;10.00;99.90;;;;;;5045732;28;20040;-73
2023/10/26 00:58:47;;;;;;;18.17;7.03;;;10.00;99.90;;;;;;5049004;28;20112;-74
2023/10/26 01:01:15;;;;;;;20.10;7.47;;;10.00;99.90;;;;;;5033778;28;20033;-75
2023/10/26 01:03:41;;;;;;;20.13;8.35;;;10.00;99.90;;;;;;5051638;28;20033;-76
2023/10/26 01:06:08;;;;;;;16.02;7.13;;;10.00;99.90;;;;;;5049678;28;20063;-74
2023/10/26 01:08:34;;;;;;;20.27;7.85;;;10.00;99.90;;;;;;5050533;28;20044;-75
2023/10/26 01:11:01;;;;;;;21.08;7.80;;;10.00;99.90;;;;;;5048435;28;20029;-75
2023/10/26 01:13:29;;;;;;;20.40;8.13;;;10.00;99.90;;;;;;5046083;28;20046;-75
2023/10/26 01:15:55;;;;;;;19.45;8.20;;;10.10;99.90;;;;;;5028515;28;20029;-75
2023/10/26 01:18:21;;;;;;;17.85;8.25;;;10.10;99.90;;;;;;5029590;28;20113;-74
2023/10/26 01:20:47;;;;;;;24.23;9.02;;;10.10;99.90;;;;;;5035136;28;20560;-75
2023/10/26 01:23:12;;;;;;;26.85;8.95;;;10.10;99.90;;;;;;5050487;28;20501;-75
2023/10/26 01:25:38;;;;;;;27.98;9.38;;;10.10;99.90;;;;;;5050345;28;20078;-75
2023/10/26 01:28:04;;;;;;;20.17;8.20;;;10.10;99.90;;;;;;5039952;28;20510;-74
2023/10/26 01:33:05;;;;;;;24.00;8.63;;;10.10;99.90;;;;;;5090624;23;20076;-79
2023/10/26 01:35:38;;;;;;;20.17;8.13;;;10.10;99.90;;;;;;5034402;28;20046;-78
2023/10/26 01:38:04;;;;;;;20.98;9.18;;;10.10;99.90;;;;;;5031495;28;20050;-79
2023/10/26 01:40:29;;;;;;;19.90;8.30;;;10.00;99.90;;;;;;5020192;28;20030;-78
2023/10/26 01:42:55;;;;;;;22.60;9.20;;;10.10;99.90;;;;;;5008393;28;20038;-76
2023/10/26 01:45:21;;;;;;;18.10;8.77;;;10.10;99.90;;;;;;5022539;28;20042;-80
2023/10/26 01:47:46;;;;;;;23.63;9.00;;;10.10;99.90;;;;;;5002303;28;20073;-79
2023/10/26 01:50:12;;;;;;;23.45;8.95;;;10.10;99.90;;;;;;5016423;28;20117;-78
2023/10/26 01:52:37;;;;;;;25.40;9.57;;;10.10;99.90;;;;;;5003368;28;20030;-78
2023/10/26 01:55:03;;;;;;;24.83;8.77;;;10.10;99.90;;;;;;5000065;28;20512;-80
2023/10/26 01:57:29;;;;;;;25.58;9.10;;;10.10;99.90;;;;;;4991662;28;20034;-78
2023/10/26 01:59:55;;;;;;;22.00;9.00;;;10.10;99.90;;;;;;4997316;28;20109;-78
2023/10/26 02:02:21;;;;;;;24.05;9.50;;;10.10;99.90;;;;;;4996252;28;20034;-78
2023/10/26 02:04:47;;;;;;;24.13;9.52;;;10.10;99.90;;;;;;4995107;28;20048;-80
2023/10/26 02:07:12;;;;;;;25.67;10.18;;;10.10;99.90;;;;;;4995686;28;20034;-79
2023/10/26 02:09:38;;;;;;;25.73;9.18;;;10.00;99.90;;;;;;5011773;28;20077;-78
2023/10/26 02:12:04;;;;;;;21.92;9.18;;;10.00;99.90;;;;;;5010727;28;20033;-79
2023/10/26 02:14:29;;;;;;;22.45;9.95;;;10.00;99.90;;;;;;5003654;28;20092;-78
2023/10/26 02:16:55;;;;;;;22.20;8.68;;;10.00;99.90;;;;;;5008313;28;20022;-79
2023/10/26 02:19:21;;;;;;;20.63;9.35;;;10.00;99.90;;;;;;5001392;28;20022;-79
2023/10/26 02:21:46;;;;;;;21.50;9.05;;;10.00;99.90;;;;;;4998895;28;20073;-80
2023/10/26 02:24:12;;;;;;;24.67;8.98;;;9.90;99.90;;;;;;5001780;28;20038;-79
2023/10/26 02:26:37;;;;;;;25.48;9.30;;;9.90;99.90;;;;;;5000590;28;20038;-79
2023/10/26 02:29:03;;;;;;;20.10;8.80;;;9.80;99.90;;;;;;5003802;28;20045;-78
2023/10/26 02:31:28;;;;;;;19.42;8.15;;;9.70;99.90;;;;;;5022770;28;20058;-80
2023/10/26 02:33:54;;;;;;;19.92;8.63;;;9.70;99.90;;;;;;5005240;28;20449;-80
2023/10/26 02:36:19;;;;;;;20.35;8.35;;;9.60;99.90;;;;;;5001878;28;20042;-77
2023/10/26 02:38:45;;;;;;;20.10;8.77;;;9.60;99.90;;;;;;5001476;28;20104;-80
2023/10/26 02:41:11;;;;;;;29.83;9.52;;;9.50;99.90;;;;;;5000464;28;20398;-80
2023/10/26 02:43:37;;;;;;;18.35;8.35;;;9.50;99.90;;;;;;4997494;28;20086;-79
2023/10/26 02:46:06;;;;;;;18.50;7.90;;;9.40;99.90;;;;;;5004371;28;20501;-78
2023/10/26 02:48:33;;;;;;;27.20;8.63;;;9.40;99.90;;;;;;4998363;28;20061;-79
2023/10/26 02:51:00;;;;;;;21.08;8.50;;;9.30;99.90;;;;;;5002584;28;20065;-78
2023/10/26 02:53:25;;;;;;;21.95;8.50;;;9.30;99.90;;;;;;4998831;28;20084;-80
2023/10/26 02:55:51;;;;;;;19.25;8.65;;;9.20;99.90;;;;;;4998730;28;20038;-78
2023/10/26 02:58:17;;;;;;;24.58;9.63;;;9.20;99.90;;;;;;5006567;28;20031;-78
2023/10/26 03:00:43;;;;;;;22.92;8.98;;;9.20;99.90;;;;;;5004379;28;20544;-78
2023/10/26 03:03:08;;;;;;;19.80;9.00;;;9.20;99.90;;;;;;4999763;28;20038;-80
2023/10/26 03:05:35;;;;;;;24.85;7.72;;;9.20;99.90;;;;;;4999724;28;20049;-78
2023/10/26 03:08:01;;;;;;;28.77;9.80;;;9.20;99.90;;;;;;4995687;28;20038;-78
2023/10/26 03:10:28;;;;;;;19.67;8.60;;;9.10;99.90;;;;;;5008852;28;20057;-79
2023/10/26 03:12:53;;;;;;;18.48;8.20;;;9.10;99.90;;;;;;5006987;28;20037;-81
2023/10/26 03:15:19;;;;;;;23.25;8.25;;;9.10;99.90;;;;;;5015689;28;20041;-79
2023/10/26 03:17:44;;;;;;;21.73;8.18;;;9.00;99.90;;;;;;4999916;28;20042;-79
2023/10/26 03:20:11;;;;;;;19.80;8.15;;;9.00;99.90;;;;;;4998961;28;20495;-79
2023/10/26 03:22:36;;;;;;;17.25;7.72;;;9.00;99.90;;;;;;5001941;28;20044;-79
2023/10/26 03:25:05;;;;;;;17.63;7.28;;;9.00;99.90;;;;;;4998769;28;20025;-78
2023/10/26 03:27:31;;;;;;;20.73;8.05;;;8.90;99.90;;;;;;4999725;28;20049;-77
2023/10/26 03:29:57;;;;;;;16.83;7.75;;;8.90;99.90;;;;;;5005729;28;20034;-80
2023/10/26 03:32:22;;;;;;;20.63;7.30;;;8.90;99.90;;;;;;5005932;28;20042;-79
2023/10/26 03:34:48;;;;;;;17.23;7.85;;;8.90;99.90;;;;;;5009252;28;20048;-80
2023/10/26 03:37:14;;;;;;;27.55;8.63;;;8.80;99.90;;;;;;5018542;28;20061;-78
2023/10/26 03:39:40;;;;;;;31.88;8.45;;;8.80;99.90;;;;;;4999223;28;20038;-79
2023/10/26 03:42:06;;;;;;;23.67;7.60;;;8.80;99.90;;;;;;4992582;28;21054;-81
2023/10/26 03:44:32;;;;;;;31.98;9.15;;;8.80;99.90;;;;;;5007455;28;20087;-78
2023/10/26 03:46:57;;;;;;;21.50;8.73;;;8.80;99.90;;;;;;5001282;28;20022;-80
2023/10/26 03:49:23;;;;;;;23.02;8.80;;;8.70;99.90;;;;;;4999851;28;20053;-80
2023/10/26 03:51:49;;;;;;;38.03;9.45;;;8.70;99.90;;;;;;4997226;28;20034;-80
2023/10/26 03:54:15;;;;;;;39.08;9.55;;;8.70;99.90;;;;;;4999538;28;20395;-78
2023/10/26 03:56:40;;;;;;;30.10;10.18;;;8.70;99.90;;;;;;5002449;28;20038;-79
2023/10/26 03:59:06;;;;;;;19.58;8.48;;;8.70;99.90;;;;;;4995282;28;20046;-77
2023/10/26 04:01:32;;;;;;;45.47;9.23;;;8.70;99.90;;;;;;4998607;28;20046;-80
2023/10/26 04:03:57;;;;;;;22.38;8.02;;;8.70;99.90;;;;;;5017091;28;20034;-80
2023/10/26 04:06:23;;;;;;;29.27;8.45;;;8.60;99.90;;;;;;4998301;28;20053;-77
2023/10/26 04:08:49;;;;;;;31.38;8.68;;;8.60;99.90;;;;;;4995691;28;20124;-80
2023/10/26 04:11:17;;;;;;;34.72;8.57;;;8.60;99.90;;;;;;5002342;28;20077;-81
2023/10/26 04:13:43;;;;;;;46.33;9.80;;;8.60;99.90;;;;;;5005456;28;20054;-79
2023/10/26 04:16:09;;;;;;;40.13;9.00;;;8.60;99.90;;;;;;5009221;28;20062;-77
2023/10/26 04:18:34;;;;;;;43.30;8.98;;;8.60;99.90;;;;;;4996912;28;20048;-79
2023/10/26 04:21:00;;;;;;;41.47;8.77;;;8.50;99.90;;;;;;5016307;28;20064;-79
2023/10/26 04:23:27;;;;;;;27.45;7.03;;;8.60;99.90;;;;;;5002073;28;20033;-76
2023/10/26 04:25:53;;;;;;;41.70;8.85;;;8.50;99.90;;;;;;4998305;28;20034;-78
2023/10/26 04:28:19;;;;;;;50.65;8.60;;;8.50;99.90;;;;;;5003913;28;20143;-79
2023/10/26 04:30:48;;;;;;;27.67;7.35;;;8.50;99.90;;;;;;5005687;28;20045;-79
2023/10/26 04:33:17;;;;;;;25.95;6.88;;;8.50;99.90;;;;;;5004339;28;20448;-78
2023/10/26 04:35:44;;;;;;;32.20;7.43;;;8.50;99.90;;;;;;5009449;28;20038;-79
2023/10/26 04:38:11;;;;;;;20.10;7.07;;;8.50;99.90;;;;;;5011270;28;20033;-79
2023/10/26 04:40:41;;;;;;;34.80;8.55;;;8.50;99.90;;;;;;5003117;28;20042;-78
2023/10/26 04:43:08;;;;;;;30.00;7.15;;;8.50;99.90;;;;;;5003509;28;20074;-79
2023/10/26 04:45:34;;;;;;;19.63;5.15;;;8.60;99.90;;;;;;5001167;28;20054;-79
2023/10/26 04:48:00;;;;;;;22.25;5.13;;;8.50;99.90;;;;;;5015586;28;20034;-79
2023/10/26 04:50:26;;;;;;;18.48;6.47;;;8.60;99.90;;;;;;5003299;28;20490;-78
2023/10/26 04:52:52;;;;;;;16.67;6.25;;;8.60;99.90;;;;;;4998950;28;20038;-78
2023/10/26 04:55:18;;;;;;;19.88;6.38;;;8.60;99.90;;;;;;5003212;28;20030;-79
2023/10/26 04:57:44;;;;;;;24.83;7.20;;;8.60;99.90;;;;;;5006635;28;20215;-79
2023/10/26 05:00:10;;;;;;;36.60;9.95;;;8.60;99.90;;;;;;5011123;28;20042;-77
2023/10/26 05:02:40;;;;;;;21.40;8.15;;;8.60;99.90;;;;;;5008487;28;20030;-77
2023/10/26 05:05:07;;;;;;;23.33;7.70;;;8.70;99.90;;;;;;5008816;28;20034;-77
2023/10/26 05:07:33;;;;;;;28.75;7.43;;;8.70;99.90;;;;;;5008635;28;20041;-78
2023/10/26 05:09:59;;;;;;;36.00;9.90;;;8.70;99.90;;;;;;5003381;28;20033;-77
2023/10/26 05:12:25;;;;;;;26.73;9.05;;;8.70;99.90;;;;;;5009051;28;20033;-76
2023/10/26 05:14:50;;;;;;;30.20;8.02;;;8.80;99.90;;;;;;5006608;28;20045;-79
2023/10/26 05:17:16;;;;;;;45.90;9.73;;;8.80;99.90;;;;;;5011308;28;20030;-78
2023/10/26 05:19:41;;;;;;;67.43;12.70;;;8.80;99.90;;;;;;5010963;28;20026;-78
2023/10/26 05:22:07;;;;;;;59.40;11.73;;;8.80;99.90;;;;;;5009314;28;20077;-81
2023/10/26 05:24:33;;;;;;;65.45;12.07;;;8.90;99.90;;;;;;5010270;28;20429;-79
2023/10/26 05:26:58;;;;;;;72.18;13.52;;;8.90;99.90;;;;;;5009595;28;20034;-79
2023/10/26 05:29:24;;;;;;;58.83;10.95;;;8.90;99.90;;;;;;5009413;28;20073;-76
2023/10/26 05:31:50;;;;;;;50.60;10.55;;;9.00;99.90;;;;;;5007047;28;20038;-80
2023/10/26 05:34:15;;;;;;;42.97;10.50;;;9.00;99.90;;;;;;5010241;28;20038;-79
2023/10/26 05:36:41;;;;;;;26.50;9.00;;;9.00;99.90;;;;;;5012397;28;20050;-77
2023/10/26 05:39:07;;;;;;;53.88;11.77;;;8.90;99.90;;;;;;5009906;28;20080;-77
2023/10/26 05:41:35;;;;;;;45.60;11.60;;;8.90;99.90;;;;;;5010759;28;20042;-79
2023/10/26 05:44:01;;;;;;;69.22;14.38;;;8.90;99.90;;;;;;5009425;28;20054;-79
2023/10/26 05:46:26;;;;;;;103.82;18.98;;;8.80;99.90;;;;;;5011554;28;20076;-78
2023/10/26 05:48:52;;;;;;;69.47;13.55;;;8.80;99.90;;;;;;5009208;28;20042;-79
2023/10/26 05:51:18;;;;;;;80.93;15.20;;;8.70;99.90;;;;;;5010821;28;20045;-79
2023/10/26 05:53:43;;;;;;;53.92;12.75;;;8.70;99.90;;;;;;5010110;28;20081;-78
2023/10/26 05:56:10;;;;;;;43.20;13.45;;;8.70;99.90;;;;;;5008543;28;20113;-79
2023/10/26 05:58:36;;;;;;;50.33;13.27;;;8.70;99.90;;;;;;5011703;28;20034;-79
2023/10/26 06:01:02;;;;;;;157.18;21.27;;;8.80;99.90;;;;;;5011635;28;20048;-79
2023/10/26 06:03:28;;;;;;;63.20;15.65;;;8.70;99.90;;;;;;5011884;28;20526;-79
2023/10/26 06:06:02;;;;;;;65.60;15.32;;;8.80;99.90;;;;;;5008451;28;20128;-79
2023/10/26 06:08:28;;;;;;;47.90;14.50;;;8.80;99.90;;;;;;5010137;28;20078;-79
2023/10/26 06:10:54;;;;;;;54.72;14.85;;;8.80;99.90;;;;;;5009038;28;20037;-78
2023/10/26 06:13:20;;;;;;;105.70;20.08;;;8.80;99.90;;;;;;5009654;28;20571;-78
2023/10/26 06:15:45;;;;;;;68.10;15.23;;;8.80;99.90;;;;;;5009849;28;20129;-80
2023/10/26 06:18:12;;;;;;;66.30;13.98;;;8.80;99.90;;;;;;5008527;28;20034;-78
2023/10/26 06:20:38;;;;;;;45.95;12.77;;;8.80;99.90;;;;;;5011774;28;20083;-78
2023/10/26 06:23:04;;;;;;;57.45;11.43;;;8.90;99.90;;;;;;5007804;28;20477;-77
2023/10/26 06:25:38;;;;;;;69.10;12.63;;;8.80;99.90;;;;;;5009721;28;20038;-81
2023/10/26 06:28:04;;;;;;;50.63;11.20;;;8.80;99.90;;;;;;5008836;28;20045;-77
2023/10/26 06:30:30;;;;;;;69.88;11.95;;;8.80;99.90;;;;;;5009927;28;20033;-79
2023/10/26 06:32:58;;;;;;;80.38;10.98;;;8.70;99.90;;;;;;5008080;28;20038;-76
2023/10/26 06:35:24;;;;;;;87.85;12.80;;;8.70;99.90;;;;;;5010062;28;20034;-78
2023/10/26 06:37:50;;;;;;;29.67;8.43;;;8.70;99.90;;;;;;5009750;28;20042;-77
2023/10/26 06:40:16;;;;;;;33.50;10.23;;;8.70;99.90;;;;;;5010770;28;20947;-80
2023/10/26 06:42:41;;;;;;;73.88;11.52;;;8.60;99.90;;;;;;5011310;28;20026;-79
2023/10/26 06:45:08;;;;;;;179.50;21.75;;;8.70;99.90;;;;;;5008535;28;21422;-76
2023/10/26 06:47:34;;;;;;;98.68;15.43;;;8.70;99.90;;;;;;5009096;28;20038;-79
2023/10/26 06:49:59;;;;;;;73.75;13.73;;;8.70;99.90;;;;;;5008942;28;20092;-79
2023/10/26 06:52:25;;;;;;;43.35;11.10;;;8.70;99.90;;;;;;5008928;28;20041;-80
2023/10/26 06:54:51;;;;;;;59.22;13.32;;;8.70;99.90;;;;;;5007787;28;20026;-79
2023/10/26 06:57:16;;;;;;;38.97;10.50;;;8.80;99.90;;;;;;5009046;28;20030;-81
2023/10/26 06:59:42;;;;;;;51.38;11.23;;;8.80;99.90;;;;;;5009630;28;20060;-78
2023/10/26 07:02:10;;;;;;;47.95;11.02;;;8.80;99.90;;;;;;5002615;28;20046;-80
2023/10/26 07:04:35;;;;;;;36.03;9.25;;;8.80;99.90;;;;;;5009737;28;20037;-78
2023/10/26 07:07:02;;;;;;;27.00;8.48;;;8.80;99.90;;;;;;5007919;28;20156;-79
2023/10/26 07:09:29;;;;;;;46.35;8.77;;;8.80;99.90;;;;;;5008681;28;20125;-79
2023/10/26 07:11:54;;;;;;;36.17;8.13;;;8.80;99.90;;;;;;5011051;28;20399;-77
2023/10/26 07:14:20;;;;;;;36.67;8.40;;;8.70;99.90;;;;;;5009805;28;20041;-77
2023/10/26 07:16:46;;;;;;;17.80;7.20;;;8.80;99.90;;;;;;5008769;28;20050;-79
2023/10/26 07:19:11;;;;;;;15.18;6.93;;;8.70;99.90;;;;;;5006422;28;20034;-79
2023/10/26 07:21:37;;;;;;;24.25;7.90;;;8.70;99.90;;;;;;5008908;28;20033;-78
2023/10/26 07:24:03;;;;;;;20.70;6.53;;;8.80;99.90;;;;;;5007302;28;21557;-79
2023/10/26 07:26:28;;;;;;;21.42;6.78;;;8.80;99.90;;;;;;5025177;28;20461;-79
2023/10/26 07:28:55;;;;;;;24.08;7.00;;;8.80;99.90;;;;;;5007548;28;20034;-79
2023/10/26 07:31:21;;;;;;;16.88;6.03;;;8.80;99.90;;;;;;5007876;28;20052;-79
2023/10/26 07:33:48;;;;;;;43.17;8.90;;;8.80;99.90;;;;;;5008036;28;20038;-77
2023/10/26 07:36:14;;;;;;;34.30;7.50;;;8.80;99.90;;;;;;5008606;28;20469;-78
2023/10/26 07:38:41;;;;;;;16.55;6.05;;;8.80;99.90;;;;;;5006872;28;20247;-80
2023/10/26 07:41:08;;;;;;;13.65;6.72;;;8.80;99.90;;;;;;5006214;28;20046;-79
2023/10/26 07:43:37;;;;;;;23.30;7.03;;;8.90;99.90;;;;;;5007164;28;20073;-79
2023/10/26 07:46:03;;;;;;;24.65;6.97;;;8.90;99.90;;;;;;5005746;28;20038;-79
2023/10/26 07:48:30;;;;;;;25.05;6.47;;;8.90;99.90;;;;;;5007838;28;20045;-79
2023/10/26 07:50:56;;;;;;;70.80;8.82;;;8.90;99.90;;;;;;5007379;28;20080;-76
2023/10/26 07:53:23;;;;;;;29.77;7.78;;;8.90;99.90;;;;;;5010179;28;20037;-79
2023/10/26 07:55:48;;;;;;;41.38;8.23;;;8.90;99.90;;;;;;5009000;28;20546;-77
2023/10/26 07:58:14;;;;;;;51.88;9.98;;;8.90;99.90;;;;;;5008820;28;20038;-78
2023/10/26 08:00:40;;;;;;;17.85;6.75;;;8.90;99.90;;;;;;5008053;28;20695;-78
2023/10/26 08:03:05;;;;;;;32.45;7.70;;;8.90;99.90;;;;;;5002442;28;20034;-79
2023/10/26 08:05:31;;;;;;;19.42;6.07;;;9.00;99.90;;;;;;5007478;28;20038;-76
2023/10/26 08:07:56;;;;;;;25.27;6.85;;;9.00;99.90;;;;;;5005789;28;20038;-80
2023/10/26 08:10:24;;;;;;;26.15;8.23;;;9.00;99.90;;;;;;5007460;28;20037;-78
2023/10/26 08:12:53;;;;;;;24.48;6.85;;;9.00;99.90;;;;;;5005398;28;20113;-78
2023/10/26 08:15:23;;;;;;;16.20;5.97;;;9.10;99.90;;;;;;5007682;28;20116;-77
2023/10/26 08:17:48;;;;;;;22.55;6.07;;;9.20;99.90;;;;;;5003857;28;20038;-79
2023/10/26 08:20:15;;;;;;;16.15;6.18;;;9.20;99.90;;;;;;5004028;28;20403;-77
2023/10/26 08:22:40;;;;;;;12.60;5.88;;;9.20;99.90;;;;;;5006246;28;20049;-78
2023/10/26 08:25:06;;;;;;;22.23;7.20;;;9.20;99.90;;;;;;5006617;28;20056;-77
2023/10/26 08:27:32;;;;;;;16.25;6.07;;;9.30;99.90;;;;;;5010191;28;20054;-77
2023/10/26 08:29:57;;;;;;;25.38;7.00;;;9.30;99.90;;;;;;5008619;28;20068;-78
2023/10/26 08:32:23;;;;;;;22.08;6.57;;;9.30;99.90;;;;;;5006431;28;20041;-78
2023/10/26 08:34:49;;;;;;;14.43;5.85;;;9.40;99.90;;;;;;5006799;28;20807;-79
2023/10/26 08:37:17;;;;;;;14.13;5.78;;;9.40;99.90;;;;;;5007751;28;20034;-78
2023/10/26 08:39:43;;;;;;;16.65;6.20;;;9.50;99.90;;;;;;5010031;28;20042;-78
2023/10/26 08:42:09;;;;;;;17.55;6.03;;;9.50;99.90;;;;;;5006999;28;20159;-78
2023/10/26 08:44:35;;;;;;;13.27;5.70;;;9.50;99.90;;;;;;5007816;28;20478;-77
2023/10/26 08:47:04;;;;;;;15.07;6.47;;;9.60;99.90;;;;;;5008797;28;20056;-79
2023/10/26 08:49:31;;;;;;;16.07;6.37;;;9.70;99.90;;;;;;5007810;28;20050;-78
2023/10/26 08:51:58;;;;;;;17.35;6.68;;;9.70;99.90;;;;;;5006733;28;20185;-79
2023/10/26 08:54:25;;;;;;;20.77;6.10;;;9.80;99.90;;;;;;5007821;28;20498;-76
2023/10/26 08:56:50;;;;;;;14.40;6.05;;;9.80;99.90;;;;;;5007392;28;20048;-79
2023/10/26 08:59:16;;;;;;;12.48;5.50;;;9.80;99.90;;;;;;5007852;28;20030;-80
2023/10/26 09:01:46;;;;;;;11.57;5.30;;;9.90;99.90;;;;;;5007538;28;20030;-80
2023/10/26 09:04:13;;;;;;;10.25;4.72;;;9.90;99.90;;;;;;5000646;28;20064;-77
2023/10/26 09:06:51;;;;;;;13.75;5.63;;;9.90;99.90;;;;;;5008183;28;20044;-79
2023/10/26 09:09:17;;;;;;;12.85;5.25;;;9.90;99.90;;;;;;5004323;28;20525;-77
2023/10/26 09:11:46;;;;;;;39.38;7.57;;;9.90;99.90;;;;;;5006740;28;20034;-80
2023/10/26 09:14:19;;;;;;;21.13;6.53;;;9.90;99.90;;;;;;5009111;28;20034;-79
2023/10/26 09:16:46;;;;;;;11.82;5.82;;;9.90;99.90;;;;;;5008325;28;20443;-78
2023/10/26 09:19:14;;;;;;;11.35;5.60;;;9.90;99.90;;;;;;5010603;28;20034;-79
2023/10/26 09:21:56;;;;;;;13.05;5.40;;;9.90;99.90;;;;;;5008804;28;20321;-78
2023/10/26 09:24:28;;;;;;;14.30;5.88;;;9.90;99.90;;;;;;5009915;28;20537;-79
2023/10/26 09:26:56;;;;;;;10.98;5.38;;;9.90;99.90;;;;;;5005544;28;20065;-78
2023/10/26 09:29:38;;;;;;;14.23;6.05;;;9.90;99.90;;;;;;5007186;28;20100;-77
2023/10/26 09:32:04;;;;;;;14.35;5.32;;;9.80;99.90;;;;;;5010754;28;20048;-78
2023/10/26 09:34:29;;;;;;;11.25;5.57;;;9.90;99.90;;;;;;5006480;28;20068;-78
2023/10/26 09:37:04;;;;;;;12.38;5.90;;;9.90;99.90;;;;;;5019498;28;20062;-78
2023/10/26 09:39:32;;;;;;;10.95;5.65;;;10.00;99.90;;;;;;5012081;28;20034;-78
2023/10/26 09:42:00;;;;;;;11.23;4.95;;;10.00;99.90;;;;;;5007038;28;20108;-76
2023/10/26 09:44:30;;;;;;;11.50;5.32;;;10.10;99.90;;;;;;4994101;28;20037;-78
2023/10/26 09:46:55;;;;;;;9.70;4.70;;;10.00;99.90;;;;;;5004909;28;20034;-79
2023/10/26 09:49:26;;;;;;;10.07;5.75;;;10.10;99.90;;;;;;5007557;28;20264;-78
2023/10/26 09:51:52;;;;;;;;;;;10.10;99.90;;;;;;5006002;28;20030;-78
2023/10/26 09:54:33;;;;;;;13.20;5.75;;;10.20;99.90;;;;;;5008867;28;19953;-79
2023/10/26 09:57:21;;;;;;;12.25;5.47;;;10.30;99.90;;;;;;5002416;28;20407;-78
2023/10/26 09:59:52;;;;;;;10.38;4.82;;;10.30;99.90;;;;;;5017329;28;20058;-78
2023/10/26 10:02:20;;;;;;;17.60;5.68;;;10.40;99.90;;;;;;5004020;28;20121;-79
2023/10/26 10:04:47;;;;;;;10.57;5.70;;;10.40;99.90;;;;;;4990816;28;20587;-76
2023/10/26 10:07:16;;;;;;;11.63;5.45;;;10.50;99.90;;;;;;4986866;28;20092;-76
2023/10/26 10:10:01;;;;;;;11.40;5.47;;;10.50;99.90;;;;;;5007002;28;20498;-78
2023/10/26 10:12:26;;;;;;;11.15;6.10;;;10.60;99.90;;;;;;5005476;28;20503;-76
2023/10/26 10:14:54;;;;;;;10.85;5.75;;;10.60;99.90;;;;;;4993116;28;20034;-77
2023/10/26 10:17:42;;;;;;;12.75;6.20;;;10.60;99.90;;;;;;5005515;28;20467;-77
2023/10/26 10:20:14;;;;;;;9.35;5.13;;;10.70;99.90;;;;;;5015626;28;20046;-78
2023/10/26 10:22:40;;;;;;;10.73;5.60;;;10.70;99.90;;;;;;5007419;28;20050;-76
2023/10/26 10:25:10;;;;;;;11.02;6.03;;;10.70;99.90;;;;;;4987318;28;20571;-78
2023/10/26 10:27:36;;;;;;;10.98;5.90;;;10.70;99.90;;;;;;4991604;28;20026;-76
2023/10/26 10:30:08;;;;;;;10.35;5.55;;;10.70;99.90;;;;;;5008149;28;20034;-77
2023/10/26 10:32:43;;;;;;;14.20;5.88;;;10.70;99.90;;;;;;5009390;28;20038;-76
2023/10/26 10:35:10;;;;;;;11.65;6.35;;;10.70;99.90;;;;;;4996099;28;20765;-76
2023/10/26 10:37:37;;;;;;;10.30;5.45;;;10.70;99.90;;;;;;5009413;28;20124;-79
2023/10/26 10:40:13;;;;;;;10.43;5.20;;;10.70;99.90;;;;;;5007819;28;20053;-78
2023/10/26 10:42:40;;;;;;;10.80;5.80;;;10.80;99.90;;;;;;4987908;28;20572;-77
2023/10/26 10:45:12;;;;;;;10.88;4.82;;;10.80;99.90;;;;;;5003669;28;20041;-77
2023/10/26 10:47:42;;;;;;;10.23;5.32;;;10.90;99.90;;;;;;5007379;28;20491;-77
2023/10/26 10:50:22;;;;;;;10.23;4.55;;;10.90;99.90;;;;;;5006556;28;20096;-77
2023/10/26 10:52:49;;;;;;;17.20;5.68;;;10.90;99.90;;;;;;5006754;28;20524;-76
2023/10/26 10:55:20;;;;;;;10.65;5.93;;;10.80;99.90;;;;;;4989141;28;20118;-79
2023/10/26 10:58:00;;;;;;;8.60;5.15;;;10.80;99.90;;;;;;5008346;28;20124;-78
2023/10/26 11:00:46;;;;;;;9.77;5.60;;;10.90;99.90;;;;;;5005616;28;20037;-76
2023/10/26 11:03:22;;;;;;;11.38;5.63;;;10.80;99.90;;;;;;5007719;28;20092;-76
2023/10/26 11:05:48;;;;;;;11.07;5.93;;;10.80;99.90;;;;;;5007836;28;20038;-79
2023/10/26 11:08:14;;;;;;;10.25;5.53;;;10.80;99.90;;;;;;5007641;28;20040;-78
2023/10/26 11:10:40;;;;;;;11.00;5.13;;;10.70;99.90;;;;;;5007682;28;20064;-77
2023/10/26 11:13:05;;;;;;;9.50;5.32;;;10.90;99.90;;;;;;5006754;28;20491;-78
2023/10/26 11:15:35;;;;;;;10.50;5.50;;;10.80;99.90;;;;;;5024160;28;20046;-76
2023/10/26 11:18:02;;;;;;;12.75;5.28;;;10.80;99.90;;;;;;5006711;28;20510;-77
2023/10/26 11:20:37;;;;;;;9.95;5.45;;;10.90;99.90;;;;;;5008544;28;20054;-77
2023/10/26 11:23:07;;;;;;;15.52;5.60;;;10.80;99.90;;;;;;5022616;28;20041;-77
2023/10/26 11:25:33;;;;;;;10.50;5.55;;;10.80;99.90;;;;;;5008555;28;20077;-76
2023/10/26 11:27:58;;;;;;;9.20;4.78;;;10.80;99.90;;;;;;5005909;28;20466;-76
2023/10/26 11:30:24;;;;;;;10.55;5.65;;;10.70;99.90;;;;;;5006836;28;20030;-77
2023/10/26 11:32:50;;;;;;;11.55;5.90;;;10.80;99.90;;;;;;5007100;28;20038;-76
2023/10/26 11:35:16;;;;;;;11.00;5.22;;;10.90;99.90;;;;;;5006921;28;20038;-78
2023/10/26 11:38:02;;;;;;;9.65;5.22;;;10.90;99.90;;;;;;5007198;28;20060;-77
2023/10/26 11:40:31;;;;;;;10.40;5.05;;;11.00;99.90;;;;;;5014976;28;20640;-78
2023/10/26 11:43:03;;;;;;;9.63;5.07;;;11.00;99.90;;;;;;5000721;28;20072;-77
2023/10/26 11:45:29;;;;;;;11.20;5.20;;;11.00;99.90;;;;;;5004859;28;20145;-79
2023/10/26 11:47:55;;;;;;;13.32;5.60;;;10.90;99.90;;;;;;4992481;28;20144;-76
2023/10/26 11:50:22;;;;;;;8.45;4.55;;;10.90;99.90;;;;;;5020358;28;20026;-77
2023/10/26 11:52:50;;;;;;;10.93;5.18;;;10.80;99.90;;;;;;4990879;28;20550;-77
2023/10/26 11:55:15;;;;;;;10.68;5.78;;;10.90;99.90;;;;;;4989881;28;20137;-77
2023/10/26 11:57:41;;;;;;;10.50;5.30;;;10.80;99.90;;;;;;4992031;28;20495;-77
2023/10/26 12:00:08;;;;;;;12.43;5.88;;;10.80;99.90;;;;;;5007189;28;20034;-78
2023/10/26 12:02:34;;;;;;;11.77;5.82;;;10.70;99.90;;;;;;5006894;28;20030;-77
2023/10/26 12:05:00;;;;;;;13.90;6.07;;;10.70;99.90;;;;;;5021967;28;20517;-77
2023/10/26 12:07:26;;;;;;;10.50;5.47;;;10.60;99.90;;;;;;4991774;28;20042;-77
2023/10/26 12:09:51;;;;;;;11.95;5.43;;;10.50;99.90;;;;;;5001277;28;20096;-77
2023/10/26 12:12:17;;;;;;;10.73;5.72;;;10.40;99.90;;;;;;5006306;28;20104;-76
2023/10/26 12:14:43;;;;;;;10.52;5.30;;;10.50;99.90;;;;;;5006639;28;20030;-76
2023/10/26 12:17:09;;;;;;;12.10;6.43;;;10.40;99.90;;;;;;5002125;28;20027;-76
2023/10/26 12:19:35;;;;;;;14.55;5.80;;;10.40;99.90;;;;;;4988702;28;20109;-77
2023/10/26 12:22:00;;;;;;;10.75;6.43;;;10.30;99.90;;;;;;4986617;28;20551;-78
2023/10/26 12:24:26;;;;;;;9.85;5.70;;;10.40;99.90;;;;;;5004751;28;20491;-78
2023/10/26 12:26:59;;;;;;;11.07;4.80;;;10.40;99.90;;;;;;4999424;28;20484;-77
2023/10/26 12:29:24;;;;;;;11.13;5.88;;;10.40;99.90;;;;;;4988704;28;20067;-78
2023/10/26 12:31:50;;;;;;;10.23;4.93;;;10.30;99.90;;;;;;4987743;28;20852;-77
2023/10/26 12:34:16;;;;;;;13.07;5.43;;;10.30;99.90;;;;;;4990938;28;20085;-78
2023/10/26 12:36:41;;;;;;;9.65;5.22;;;10.20;99.90;;;;;;4988662;28;20446;-78
2023/10/26 12:39:07;;;;;;;9.32;5.22;;;10.30;99.90;;;;;;4995505;28;20457;-78
2023/10/26 12:41:32;;;;;;;11.85;5.70;;;10.30;99.90;;;;;;5006806;28;20045;-77